createdAt,value
2019-04-27T00:01:33.619Z,17.10
2019-04-27T00:04:21.027Z,20.30
2019-04-27T00:06:51.352Z,20.33
2019-04-27T00:09:43.226Z,17.33
2019-04-27T00:12:10.463Z,22.03
2019-04-27T00:14:40.115Z,16.77
2019-04-27T00:17:43.551Z,15.90
2019-04-27T00:20:24.723Z,13.27
2019-04-27T00:23:19.882Z,15.47
2019-04-27T00:25:49.738Z,13.90
2019-04-27T00:28:19.269Z,19.57
2019-04-27T00:30:48.852Z,15.60
2019-04-27T00:33:18.633Z,15.43
2019-04-27T00:35:54.002Z,14.37
2019-04-27T00:38:29.113Z,15.43
2019-04-27T00:41:03.252Z,15.73
2019-04-27T00:43:32.887Z,15.83
2019-04-27T00:46:04.034Z,19.40
2019-04-27T00:48:37.576Z,16.17
2019-04-27T00:51:07.317Z,22.63
2019-04-27T00:53:39.328Z,19.20
2019-04-27T00:56:26.506Z,19.73
2019-04-27T00:59:13.787Z,17.20
2019-04-27T01:01:50.700Z,23.90
2019-04-27T01:04:25.299Z,19.13
2019-04-27T01:06:57.040Z,19.40
2019-04-27T01:09:27.115Z,16.70
2019-04-27T01:11:56.921Z,19.43
2019-04-27T01:14:26.807Z,18.33
2019-04-27T01:16:56.405Z,18.23
2019-04-27T01:19:26.066Z,15.13
2019-04-27T01:21:55.847Z,13.93
2019-04-27T01:24:25.964Z,14.17
2019-04-27T01:27:13.048Z,16.23
2019-04-27T01:29:42.923Z,17.53
2019-04-27T01:32:14.388Z,15.83
2019-04-27T01:34:44.190Z,17.27
2019-04-27T01:37:13.651Z,16.20
2019-04-27T01:39:43.189Z,19.60
2019-04-27T01:42:13.041Z,17.63
2019-04-27T01:44:42.856Z,20.07
2019-04-27T01:47:12.436Z,17.33
2019-04-27T01:49:41.930Z,17.30
2019-04-27T01:52:12.019Z,19.60
2019-04-27T01:54:41.668Z,14.53
2019-04-27T01:57:11.623Z,15.10
2019-04-27T01:59:41.313Z,19.13
2019-04-27T02:02:26.136Z,20.60
2019-04-27T02:05:13.220Z,20.97
2019-04-27T02:07:43.973Z,18.23
2019-04-27T02:10:14.198Z,17.43
2019-04-27T02:12:44.286Z,16.03
2019-04-27T02:15:14.162Z,16.60
2019-04-27T02:17:43.787Z,17.83
2019-04-27T02:20:13.669Z,14.57
2019-04-27T02:22:43.686Z,17.23
2019-04-27T02:25:13.559Z,17.13
2019-04-27T02:27:49.091Z,16.33
2019-04-27T02:30:42.089Z,19.23
2019-04-27T02:33:34.272Z,18.23
2019-04-27T02:36:03.869Z,18.03
2019-04-27T02:38:33.457Z,20.00
2019-04-27T02:41:04.759Z,16.80
2019-04-27T02:43:42.974Z,15.63
2019-04-27T02:46:12.649Z,15.47
2019-04-27T02:48:55.993Z,20.93
2019-04-27T02:51:16.416Z,15.93
2019-04-27T02:54:00.140Z,16.87
2019-04-27T02:56:30.774Z,16.17
2019-04-27T02:59:00.570Z,14.13
2019-04-27T03:01:32.962Z,13.57
2019-04-27T03:04:02.712Z,14.73
2019-04-27T03:06:32.333Z,13.93
2019-04-27T03:09:02.034Z,16.33
2019-04-27T03:11:32.166Z,14.33
2019-04-27T03:14:32.573Z,15.60
2019-04-27T03:17:16.580Z,16.70
2019-04-27T03:19:54.117Z,14.87
2019-04-27T03:22:44.915Z,16.37
2019-04-27T03:25:34.899Z,16.33
2019-04-27T03:28:15.086Z,15.80
2019-04-27T03:30:44.917Z,13.67
2019-04-27T03:33:14.443Z,24.10
2019-04-27T03:35:44.313Z,14.70
2019-04-27T03:38:14.025Z,15.97
2019-04-27T03:40:44.018Z,17.97
2019-04-27T03:43:22.987Z,13.80
2019-04-27T03:45:52.808Z,19.10
2019-04-27T03:48:22.525Z,17.73
2019-04-27T03:51:10.149Z,16.80
2019-04-27T03:53:51.048Z,15.30
2019-04-27T03:56:25.735Z,13.90
2019-04-27T03:58:59.890Z,13.97
2019-04-27T04:01:30.279Z,16.70
2019-04-27T04:04:00.144Z,15.87
2019-04-27T04:06:29.831Z,18.07
2019-04-27T04:09:00.381Z,14.07
2019-04-27T04:11:39.722Z,15.43
2019-04-27T04:14:13.571Z,16.00
2019-04-27T04:17:01.784Z,16.77
2019-04-27T04:19:31.613Z,20.70
2019-04-27T04:22:00.585Z,20.83
2019-04-27T04:24:31.803Z,16.13
2019-04-27T04:27:01.730Z,17.90
2019-04-27T04:29:31.222Z,15.17
2019-04-27T04:32:00.798Z,16.20
2019-04-27T04:34:30.720Z,17.17
2019-04-27T04:37:00.798Z,18.37
2019-04-27T04:39:30.792Z,17.93
2019-04-27T04:42:19.859Z,19.80
2019-04-27T04:45:17.072Z,15.87
2019-04-27T04:48:01.532Z,19.30
2019-04-27T04:50:31.201Z,19.33
2019-04-27T04:53:00.813Z,15.37
2019-04-27T04:55:30.882Z,19.87
2019-04-27T04:58:00.578Z,18.97
2019-04-27T05:00:30.875Z,18.57
2019-04-27T05:03:00.890Z,19.33
2019-04-27T05:05:30.636Z,17.77
2019-04-27T05:08:00.890Z,28.77
2019-04-27T05:10:31.284Z,15.73
2019-04-27T05:13:00.931Z,18.83
2019-04-27T05:15:30.823Z,19.37
2019-04-27T05:18:00.502Z,17.93
2019-04-27T05:20:45.367Z,18.47
2019-04-27T05:23:14.963Z,15.87
2019-04-27T05:25:44.494Z,18.83
2019-04-27T05:28:14.230Z,17.47
2019-04-27T05:30:43.904Z,19.63
2019-04-27T05:33:13.649Z,18.47
2019-04-27T05:35:43.405Z,16.73
2019-04-27T05:38:13.618Z,20.13
2019-04-27T05:40:43.521Z,22.00
2019-04-27T05:43:14.857Z,17.23
2019-04-27T05:46:51.306Z,17.57
2019-04-27T05:49:44.441Z,21.97
2019-04-27T05:52:29.487Z,20.93
2019-04-27T05:55:00.221Z,18.63
2019-04-27T05:57:31.347Z,19.23
2019-04-27T06:00:02.490Z,20.60
2019-04-27T06:02:32.705Z,16.53
2019-04-27T06:05:02.249Z,17.27
2019-04-27T06:07:32.167Z,16.50
2019-04-27T06:10:01.864Z,16.87
2019-04-27T06:12:31.971Z,17.47
2019-04-27T06:15:01.953Z,21.50
2019-04-27T06:17:31.880Z,14.97
2019-04-27T06:20:02.018Z,16.00
2019-04-27T06:22:31.584Z,21.73
2019-04-27T06:25:01.326Z,17.83
2019-04-27T06:27:31.164Z,21.37
2019-04-27T06:30:04.716Z,16.53
2019-04-27T06:32:32.678Z,14.43
2019-04-27T06:35:02.234Z,17.03
2019-04-27T06:37:31.857Z,17.57
2019-04-27T06:40:01.734Z,20.97
2019-04-27T06:42:31.750Z,16.97
2019-04-27T06:45:01.299Z,16.87
2019-04-27T06:47:31.075Z,17.70
2019-04-27T06:50:00.661Z,17.63
2019-04-27T06:52:30.733Z,16.17
2019-04-27T06:55:00.691Z,17.67
2019-04-27T06:57:30.915Z,16.70
2019-04-27T07:00:00.552Z,17.23
2019-04-27T07:02:30.573Z,18.43
2019-04-27T07:05:00.713Z,18.23
2019-04-27T07:07:30.756Z,16.63
2019-04-27T07:10:00.552Z,16.90
2019-04-27T07:12:30.462Z,19.20
2019-04-27T07:15:00.740Z,15.27
2019-04-27T07:17:31.318Z,19.53
2019-04-27T07:20:01.249Z,18.60
2019-04-27T07:22:30.843Z,19.93
2019-04-27T07:25:00.568Z,20.97
2019-04-27T07:27:30.562Z,22.00
2019-04-27T07:30:01.717Z,20.57
2019-04-27T07:32:31.829Z,20.53
2019-04-27T07:35:01.438Z,19.90
2019-04-27T07:37:31.201Z,20.03
2019-04-27T07:40:00.905Z,20.20
2019-04-27T07:42:32.255Z,19.67
2019-04-27T07:45:11.379Z,19.23
2019-04-27T07:47:44.576Z,21.13
2019-04-27T07:50:14.573Z,20.30
2019-04-27T07:52:44.707Z,21.07
2019-04-27T07:55:14.252Z,19.80
2019-04-27T07:57:43.873Z,24.53
2019-04-27T08:00:14.789Z,18.97
2019-04-27T08:02:44.730Z,19.57
2019-04-27T08:05:14.822Z,18.33
2019-04-27T08:07:44.430Z,21.50
2019-04-27T08:10:14.740Z,20.37
2019-04-27T08:12:47.615Z,18.50
2019-04-27T08:15:18.905Z,20.40
2019-04-27T08:17:49.219Z,19.17
2019-04-27T08:20:21.116Z,21.10
2019-04-27T08:22:50.646Z,21.17
2019-04-27T08:25:22.378Z,20.60
2019-04-27T08:28:00.286Z,17.20
2019-04-27T08:30:51.742Z,19.73
2019-04-27T08:33:21.485Z,21.00
2019-04-27T08:35:51.045Z,22.63
2019-04-27T08:38:20.812Z,16.50
2019-04-27T08:40:50.362Z,20.47
2019-04-27T08:43:20.023Z,22.60
2019-04-27T08:45:50.162Z,20.07
2019-04-27T08:48:33.342Z,21.13
2019-04-27T08:50:51.367Z,27.37
2019-04-27T08:53:21.072Z,25.53
2019-04-27T08:55:52.755Z,28.17
2019-04-27T08:58:22.363Z,23.60
2019-04-27T09:00:52.228Z,27.40
2019-04-27T09:03:22.141Z,32.30
2019-04-27T09:05:52.169Z,27.97
2019-04-27T09:08:44.053Z,30.00
2019-04-27T09:11:24.428Z,34.93
2019-04-27T09:14:09.985Z,31.73
2019-04-27T09:16:59.556Z,33.87
2019-04-27T09:19:29.133Z,33.37
2019-04-27T09:22:13.443Z,33.37
2019-04-27T09:24:36.655Z,32.10
2019-04-27T09:27:09.585Z,36.70
2019-04-27T09:29:39.711Z,47.33
2019-04-27T09:32:09.533Z,35.40
2019-04-27T09:34:39.407Z,38.73
2019-04-27T09:37:09.197Z,39.97
2019-04-27T09:39:39.318Z,38.27
2019-04-27T09:42:09.334Z,36.13
2019-04-27T09:44:39.193Z,40.13
2019-04-27T09:47:09.598Z,36.67
2019-04-27T09:49:39.163Z,33.97
2019-04-27T09:52:08.880Z,37.90
2019-04-27T09:54:38.689Z,41.27
2019-04-27T09:57:08.657Z,42.17
2019-04-27T09:59:39.766Z,37.03
2019-04-27T10:02:10.122Z,38.70
2019-04-27T10:04:39.706Z,36.70
2019-04-27T10:07:10.673Z,39.90
2019-04-27T10:09:40.438Z,39.27
2019-04-27T10:12:10.273Z,35.33
2019-04-27T10:14:40.246Z,42.60
2019-04-27T10:17:09.987Z,42.27
2019-04-27T10:19:39.734Z,38.97
2019-04-27T10:22:09.618Z,40.60
2019-04-27T10:24:39.363Z,39.77
2019-04-27T10:27:09.606Z,34.80
2019-04-27T10:29:39.328Z,36.83
2019-04-27T10:32:10.003Z,33.13
2019-04-27T10:34:41.647Z,29.13
2019-04-27T10:37:11.553Z,30.30
2019-04-27T10:39:41.102Z,29.37
2019-04-27T10:42:11.060Z,31.23
2019-04-27T10:44:40.751Z,29.37
2019-04-27T10:47:11.093Z,26.17
2019-04-27T10:49:40.813Z,35.43
2019-04-27T10:52:11.831Z,29.37
2019-04-27T10:54:41.440Z,30.77
2019-04-27T10:57:11.336Z,29.00
2019-04-27T10:59:40.950Z,24.67
2019-04-27T11:02:11.065Z,26.47
2019-04-27T11:04:56.626Z,21.73
2019-04-27T11:07:30.317Z,19.53
2019-04-27T11:10:03.040Z,20.83
2019-04-27T11:12:33.295Z,17.23
2019-04-27T11:15:03.558Z,17.43
2019-04-27T11:17:37.053Z,15.73
2019-04-27T11:20:07.478Z,14.20
2019-04-27T11:22:37.313Z,15.73
2019-04-27T11:25:08.338Z,12.40
2019-04-27T11:27:38.977Z,9.93
2019-04-27T11:30:09.460Z,10.57
2019-04-27T11:32:43.721Z,7.20
2019-04-27T11:35:39.343Z,10.50
2019-04-27T11:38:08.458Z,10.53
2019-04-27T11:40:38.441Z,8.33
2019-04-27T11:43:10.345Z,9.70
2019-04-27T11:45:40.095Z,10.73
2019-04-27T11:48:10.136Z,10.40
2019-04-27T11:50:39.989Z,13.67
2019-04-27T11:53:19.815Z,10.93
2019-04-27T11:55:41.486Z,10.53
2019-04-27T11:58:11.548Z,10.97
2019-04-27T12:00:41.377Z,11.23
2019-04-27T12:03:11.916Z,10.77
2019-04-27T12:05:41.639Z,10.10
2019-04-27T12:08:11.590Z,12.07
2019-04-27T12:10:41.578Z,7.17
2019-04-27T12:13:11.463Z,9.50
2019-04-27T12:15:41.296Z,13.77
2019-04-27T12:18:11.373Z,10.47
2019-04-27T12:20:41.265Z,11.90
2019-04-27T12:23:11.005Z,10.77
2019-04-27T12:25:41.361Z,9.27
2019-04-27T12:28:20.553Z,11.43
2019-04-27T12:31:00.350Z,11.33
2019-04-27T12:33:31.530Z,14.33
2019-04-27T12:36:01.170Z,11.87
2019-04-27T12:38:30.800Z,17.17
2019-04-27T12:41:00.595Z,15.43
2019-04-27T12:43:30.350Z,12.17
2019-04-27T12:45:59.920Z,16.53
2019-04-27T12:48:30.869Z,15.73
2019-04-27T12:51:00.801Z,17.53
2019-04-27T12:53:48.616Z,16.50
2019-04-27T12:56:29.956Z,12.37
2019-04-27T12:59:05.388Z,14.90
2019-04-27T13:01:36.104Z,8.20
2019-04-27T13:04:06.210Z,7.47
2019-04-27T13:06:35.903Z,7.40
2019-04-27T13:09:07.735Z,9.93
2019-04-27T13:11:37.359Z,6.70
2019-04-27T13:14:07.311Z,6.33
2019-04-27T13:16:37.798Z,9.30
2019-04-27T13:19:08.929Z,7.17
2019-04-27T13:21:39.529Z,6.37
2019-04-27T13:24:09.770Z,3.00
2019-04-27T13:26:39.657Z,5.50
2019-04-27T13:29:09.322Z,6.43
2019-04-27T13:31:39.332Z,6.53
2019-04-27T13:34:09.379Z,7.27
2019-04-27T13:36:39.705Z,55.80
2019-04-27T13:39:09.683Z,7.37
2019-04-27T13:41:39.396Z,9.47
2019-04-27T13:44:09.001Z,8.37
2019-04-27T13:46:56.347Z,6.57
2019-04-27T13:49:51.136Z,9.13
2019-04-27T13:52:23.284Z,6.63
2019-04-27T13:54:52.959Z,7.23
2019-04-27T13:57:22.804Z,8.30
2019-04-27T13:59:52.563Z,7.13
2019-04-27T14:02:24.198Z,7.27
2019-04-27T14:04:54.510Z,4.77
2019-04-27T14:07:26.618Z,6.40
2019-04-27T14:09:56.327Z,5.47
2019-04-27T14:12:25.880Z,5.87
2019-04-27T14:14:55.637Z,7.97
2019-04-27T14:17:25.281Z,8.87
2019-04-27T14:19:55.608Z,7.27
2019-04-27T14:22:25.455Z,8.50
2019-04-27T14:24:55.110Z,5.27
2019-04-27T14:27:31.064Z,8.67
2019-04-27T14:30:00.829Z,8.30
2019-04-27T14:32:30.444Z,10.80
2019-04-27T14:35:00.298Z,17.43
2019-04-27T14:37:30.383Z,11.10
2019-04-27T14:40:00.220Z,37.00
2019-04-27T14:42:29.787Z,11.73
2019-04-27T14:44:59.491Z,10.17
2019-04-27T14:47:29.572Z,9.00
2019-04-27T14:49:59.463Z,6.70
2019-04-27T14:52:29.306Z,5.30
2019-04-27T14:54:59.209Z,5.80
2019-04-27T14:57:29.236Z,8.40
2019-04-27T15:00:00.202Z,4.50
2019-04-27T15:02:30.780Z,3.60
2019-04-27T15:05:00.466Z,6.33
2019-04-27T15:07:30.529Z,6.63
2019-04-27T15:10:00.400Z,4.87
2019-04-27T15:12:32.354Z,3.80
2019-04-27T15:15:01.813Z,4.23
2019-04-27T15:17:31.630Z,5.27
2019-04-27T15:20:06.601Z,4.60
2019-04-27T15:22:36.263Z,3.83
2019-04-27T15:25:12.331Z,5.07
2019-04-27T15:27:43.097Z,8.43
2019-04-27T15:30:18.872Z,4.03
2019-04-27T15:33:22.889Z,6.07
2019-04-27T15:36:00.094Z,6.33
2019-04-27T15:38:33.571Z,6.07
2019-04-27T15:41:13.803Z,8.43
2019-04-27T15:43:44.163Z,4.13
2019-04-27T15:46:14.200Z,5.90
2019-04-27T15:48:48.368Z,3.93
2019-04-27T15:51:20.991Z,4.07
2019-04-27T15:53:52.857Z,3.60
2019-04-27T15:56:22.120Z,4.67
2019-04-27T15:58:51.785Z,5.20
2019-04-27T16:01:22.635Z,4.53
2019-04-27T16:03:52.488Z,3.87
2019-04-27T16:06:22.339Z,4.93
2019-04-27T16:08:52.691Z,4.17
2019-04-27T16:11:22.505Z,5.63
2019-04-27T16:13:52.917Z,9.57
2019-04-27T16:16:24.602Z,4.13
2019-04-27T16:18:57.871Z,3.10
2019-04-27T16:21:31.554Z,5.10
2019-04-27T16:24:03.799Z,4.40
2019-04-27T16:26:36.127Z,3.47
2019-04-27T16:29:06.101Z,7.90
2019-04-27T16:31:36.704Z,3.77
2019-04-27T16:34:08.312Z,6.00
2019-04-27T16:36:43.588Z,2.80
2019-04-27T16:39:11.102Z,4.00
2019-04-27T16:41:44.506Z,4.40
2019-04-27T16:44:15.522Z,3.53
2019-04-27T16:46:45.755Z,4.40
2019-04-27T16:49:15.663Z,4.03
2019-04-27T16:51:49.246Z,4.10
2019-04-27T16:54:21.357Z,4.50
2019-04-27T16:56:58.283Z,3.17
2019-04-27T16:59:42.641Z,3.37
2019-04-27T17:01:55.310Z,3.23
2019-04-27T17:04:25.026Z,3.30
2019-04-27T17:06:55.013Z,4.13
2019-04-27T17:09:24.894Z,3.87
2019-04-27T17:11:54.895Z,3.33
2019-04-27T17:14:35.232Z,4.17
2019-04-27T17:17:20.905Z,1.97
2019-04-27T17:19:53.642Z,2.10
2019-04-27T17:22:24.067Z,1.87
2019-04-27T17:24:53.858Z,2.70
2019-04-27T17:27:31.948Z,2.87
2019-04-27T17:30:02.225Z,2.23
2019-04-27T17:32:41.746Z,1.93
2019-04-27T17:35:14.769Z,1.90
2019-04-27T17:37:42.956Z,1.50
2019-04-27T17:40:15.513Z,2.20
2019-04-27T17:42:45.330Z,1.87
2019-04-27T17:45:15.595Z,2.17
2019-04-27T17:47:45.546Z,1.77
2019-04-27T17:50:19.983Z,3.10
2019-04-27T17:52:55.015Z,2.17
2019-04-27T17:55:24.302Z,3.00
2019-04-27T17:58:00.545Z,6.17
2019-04-27T18:00:32.975Z,2.50
2019-04-27T18:03:00.655Z,3.63
2019-04-27T18:05:30.633Z,1.50
2019-04-27T18:08:00.931Z,1.83
2019-04-27T18:10:32.020Z,1.33
2019-04-27T18:13:02.031Z,2.03
2019-04-27T18:15:32.742Z,2.40
2019-04-27T18:18:11.616Z,2.00
2019-04-27T18:20:44.032Z,2.13
2019-04-27T18:23:18.556Z,3.43
2019-04-27T18:25:54.076Z,3.47
2019-04-27T18:28:28.287Z,4.17
2019-04-27T18:31:16.456Z,2.33
2019-04-27T18:33:48.121Z,3.33
2019-04-27T18:36:19.414Z,2.00
2019-04-27T18:38:50.166Z,4.03
2019-04-27T18:41:22.441Z,1.87
2019-04-27T18:43:55.203Z,3.47
2019-04-27T18:46:28.193Z,3.03
2019-04-27T18:49:18.169Z,2.70
2019-04-27T18:52:06.535Z,4.00
2019-04-27T18:54:41.871Z,2.57
2019-04-27T18:57:10.796Z,1.20
2019-04-27T18:59:43.157Z,1.37
2019-04-27T19:02:12.892Z,1.57
2019-04-27T19:04:42.828Z,1.37
2019-04-27T19:07:12.951Z,1.77
2019-04-27T19:09:43.393Z,1.67
2019-04-27T19:12:14.237Z,1.87
2019-04-27T19:14:47.768Z,1.57
2019-04-27T19:17:19.841Z,1.83
2019-04-27T19:19:51.138Z,2.77
2019-04-27T19:22:21.456Z,2.60
2019-04-27T19:24:51.830Z,3.67
2019-04-27T19:27:44.128Z,3.53
2019-04-27T19:30:23.850Z,3.07
2019-04-27T19:32:55.121Z,3.07
2019-04-27T19:35:25.956Z,3.30
2019-04-27T19:37:56.556Z,2.57
2019-04-27T19:40:26.683Z,2.30
2019-04-27T19:42:58.727Z,1.43
2019-04-27T19:45:31.867Z,2.20
2019-04-27T19:48:02.574Z,1.53
2019-04-27T19:50:32.838Z,1.90
2019-04-27T19:53:03.042Z,1.30
2019-04-27T19:55:38.954Z,2.90
2019-04-27T19:58:09.365Z,2.73
2019-04-27T20:01:11.131Z,4.57
2019-04-27T20:03:38.875Z,2.27
2019-04-27T20:06:10.432Z,1.83
2019-04-27T20:08:42.580Z,4.30
2019-04-27T20:11:12.399Z,3.20
2019-04-27T20:13:42.386Z,1.30
2019-04-27T20:16:12.382Z,2.57
2019-04-27T20:18:43.329Z,3.90
2019-04-27T20:21:13.316Z,3.20
2019-04-27T20:23:43.156Z,1.90
2019-04-27T20:26:12.959Z,1.20
2019-04-27T20:28:43.479Z,2.07
2019-04-27T20:31:13.491Z,3.67
2019-04-27T20:33:43.433Z,1.50
2019-04-27T20:36:13.152Z,1.50
2019-04-27T20:38:43.800Z,1.67
2019-04-27T20:41:13.902Z,2.93
2019-04-27T20:43:44.228Z,2.60
2019-04-27T20:46:14.432Z,4.97
2019-04-27T20:48:44.204Z,3.63
2019-04-27T20:51:14.399Z,3.40
2019-04-27T20:53:51.764Z,6.13
2019-04-27T20:56:21.953Z,2.20
2019-04-27T20:58:51.870Z,4.23
2019-04-27T21:01:21.774Z,3.33
2019-04-27T21:03:55.469Z,4.33
2019-04-27T21:06:42.625Z,3.83
2019-04-27T21:09:16.843Z,5.47
2019-04-27T21:11:49.374Z,5.03
2019-04-27T21:14:21.720Z,6.10
2019-04-27T21:16:56.806Z,4.70
2019-04-27T21:19:26.406Z,3.80
2019-04-27T21:21:58.683Z,2.80
2019-04-27T21:24:28.459Z,3.40
2019-04-27T21:26:59.751Z,4.90
2019-04-27T21:29:31.175Z,2.53
2019-04-27T21:32:01.226Z,2.17
2019-04-27T21:34:31.214Z,3.50
2019-04-27T21:37:01.142Z,2.97
2019-04-27T21:39:32.365Z,2.93
2019-04-27T21:42:03.410Z,5.43
2019-04-27T21:44:33.893Z,13.83
2019-04-27T21:47:04.512Z,5.03
2019-04-27T21:49:37.257Z,12.03
2019-04-27T21:52:14.626Z,10.00
2019-04-27T21:54:44.972Z,4.97
2019-04-27T21:57:15.133Z,3.77
2019-04-27T21:59:44.895Z,2.10
2019-04-27T22:02:14.621Z,3.23
2019-04-27T22:04:44.612Z,2.10
2019-04-27T22:07:14.451Z,2.03
2019-04-27T22:09:44.425Z,5.97
2019-04-27T22:12:14.941Z,4.03
2019-04-27T22:14:45.711Z,2.57
2019-04-27T22:17:16.701Z,3.73
2019-04-27T22:19:46.560Z,2.67
2019-04-27T22:22:24.128Z,2.50
2019-04-27T22:25:04.900Z,4.30
2019-04-27T22:27:35.491Z,3.43
2019-04-27T22:30:07.576Z,2.80
2019-04-27T22:32:38.110Z,4.17
2019-04-27T22:35:08.374Z,3.53
2019-04-27T22:37:41.351Z,2.77
2019-04-27T22:40:38.484Z,4.50
2019-04-27T22:43:41.198Z,4.20
2019-04-27T22:46:13.839Z,4.47
2019-04-27T22:48:46.541Z,4.70
2019-04-27T22:51:17.559Z,5.03
2019-04-27T22:53:48.002Z,6.30
2019-04-27T22:56:22.285Z,6.80
2019-04-27T22:59:03.631Z,7.93
2019-04-27T23:01:53.828Z,6.23
2019-04-27T23:04:32.429Z,7.53
2019-04-27T23:07:03.190Z,7.97
2019-04-27T23:09:33.774Z,7.13
2019-04-27T23:12:04.552Z,8.27
2019-04-27T23:14:41.373Z,9.03
2019-04-27T23:17:36.073Z,10.20
2019-04-27T23:20:06.438Z,9.27
2019-04-27T23:22:36.884Z,9.47
2019-04-27T23:25:07.039Z,9.90
2019-04-27T23:27:36.718Z,10.20
2019-04-27T23:30:07.027Z,9.93
2019-04-27T23:32:51.321Z,10.23
2019-04-27T23:35:20.786Z,9.27
2019-04-27T23:37:50.807Z,8.53
2019-04-27T23:40:22.054Z,10.07
2019-04-27T23:42:51.920Z,9.23
2019-04-27T23:45:26.751Z,9.23
2019-04-27T23:47:56.633Z,8.87
2019-04-27T23:50:28.378Z,10.27
2019-04-27T23:53:05.807Z,10.73
2019-04-27T23:55:36.116Z,11.30
2019-04-27T23:58:10.890Z,12.83
